KHRO/HRO METAR and TAF weather

Enter ICAO airport designator
Station Type Date Time Source
KHRO METAR 2019/10/18 10:53 UTC NOAA

KHRO 181053Z AUTO 15004KT 10SM CLR 07/06 A2997 RMK AO2 SLP143 T00670056


Station Type Date Time Source
KHRO Decoded METAR 2019/10/18 10:53 UTC NOAA

HARRISON BOONE COUNTY AIRPORT , AR, United States (KHRO) 36-16N 093-09W 417M
Oct 18, 2019 - 06:53 AM EDT / 2019.10.18 1053 UTC
Wind: from the SSE (150 degrees) at 5 MPH (4 KT):0
Visibility: 10 mile(s):0
Sky conditions: clear
Temperature: 44.1 F (6.7 C)
Dew Point: 42.1 F (5.6 C)
Relative Humidity: 92%
Pressure (altimeter): 29.97 in. Hg (1014 hPa)
ob: KHRO 181053Z AUTO 15004KT 10SM CLR 07/06 A2997 RMK AO2 SLP143 T00670056
cycle: 11

Station Type Date Time Source
KHRO TAF 2019/10/18 12:33 UTC NOAA

TAF KHRO 181131Z 1812/1912 VRB05KT P6SM SKC
FM181400 15009KT P6SM SKC
FM190600 VRB04KT P6SM SKC

Example: see airport list